Pagina principale
METAR-TAF:

METAR-TAF

Aeroporti :

Aeroporto di Brescia-Ghedi

Brescia Ghedi, Italia

latitudine: 45-25N, longitudine: 010-17E, altezza: 102 m

Osservazione

Il bollettino è stato emesso 50 minuti fa, alle 20:55 UTC
Vento 3 kt da nord-est
Temperature 7°C
Umidità 100%
Pressione 1020 hPa
Visibilità: 5000 m
foschia

METAR: LIPL 212055Z 04003KT 5000 BR NSC 07/07 Q1020 RMK SKC VIS MIN 5000 WIND THR31 03004KT WIND THR13 02003KT WHT

Ora: 22:45 (21:45 UTC)

Previsione

Il bollettino è stato emesso 1 ora e 45 minuti fa, alle 20:00 UTC
Previsione valida dal 21 alle 21 UTC al 22 alle 06 UTC
Vento 3 kt da direzioni variabili
Visibilità: 5000 m
Nubi sparse ad un'altezza di 8000 ft
foschia
Evoluzione graduale
dal 21 alle 23 UTC al 22 alle 01 UTC
Vento 5 kt da est/nord-est
Visibilità: 3000 m
Nubi sparse ad un'altezza di 1000 ft
Nuvoloso ad un'altezza di 3000 ft

TAF: LIPL 212000Z 2121/2206 VRB03KT 5000 BR SCT080 BECMG 2123/2201 07005KT 3000 SCT010 BKN030

Osservazioni e previsioni meteorologiche di più di 4000 aeroporti (messaggi METAR e TAF).

Le stazioni disponibili sono rappresentate dai dischi gialli e rossi sulla carta.

Puntare il mouse per vedere il nome della stazione.

Clicca sopra per visualizzare le osservazioni e previsioni meteorologiche.

Per cambiare la mappa : fare clic sui pulsanti verdi con una croce nera per ingrandire, il pulsante verde con un trattino per diminuire, o sulla freccia verde per le mappe adiacenti.


METAR-TAF: